sensor_id;sensor_type;location;lat;lon;timestamp;temperature;humidity
26575;DHT22;67165;50.256;10.978;2023-09-19T00:01:28;15.10;98.00
26575;DHT22;67165;50.256;10.978;2023-09-19T00:03:56;15.00;98.00
26575;DHT22;67165;50.256;10.978;2023-09-19T00:06:23;15.00;98.00
26575;DHT22;67165;50.256;10.978;2023-09-19T00:08:52;15.00;98.00
26575;DHT22;67165;50.256;10.978;2023-09-19T00:11:18;15.00;98.00
26575;DHT22;67165;50.256;10.978;2023-09-19T00:13:43;15.00;98.00
26575;DHT22;67165;50.256;10.978;2023-09-19T00:16:10;15.00;98.00
26575;DHT22;67165;50.256;10.978;2023-09-19T00:18:37;14.90;98.00
26575;DHT22;67165;50.256;10.978;2023-09-19T00:21:03;14.90;98.00
26575;DHT22;67165;50.256;10.978;2023-09-19T00:23:33;14.90;98.00
26575;DHT22;67165;50.256;10.978;2023-09-19T00:25:59;14.90;98.00
26575;DHT22;67165;50.256;10.978;2023-09-19T00:28:25;14.90;98.00
26575;DHT22;67165;50.256;10.978;2023-09-19T00:30:51;14.90;98.00
26575;DHT22;67165;50.256;10.978;2023-09-19T00:33:17;14.90;98.00
26575;DHT22;67165;50.256;10.978;2023-09-19T00:35:51;14.80;98.00
26575;DHT22;67165;50.256;10.978;2023-09-19T00:38:17;14.80;98.00
26575;DHT22;67165;50.256;10.978;2023-09-19T00:40:47;14.80;98.00
26575;DHT22;67165;50.256;10.978;2023-09-19T00:43:13;14.80;98.00
26575;DHT22;67165;50.256;10.978;2023-09-19T00:45:43;14.80;98.00
26575;DHT22;67165;50.256;10.978;2023-09-19T00:48:09;14.70;98.00
26575;DHT22;67165;50.256;10.978;2023-09-19T00:50:35;14.70;98.00
26575;DHT22;67165;50.256;10.978;2023-09-19T00:53:02;14.70;98.00
26575;DHT22;67165;50.256;10.978;2023-09-19T00:55:34;14.70;98.00
26575;DHT22;67165;50.256;10.978;2023-09-19T00:58:00;14.60;98.00
26575;DHT22;67165;50.256;10.978;2023-09-19T01:00:26;14.60;98.00
26575;DHT22;67165;50.256;10.978;2023-09-19T01:02:52;14.60;98.00
26575;DHT22;67165;50.256;10.978;2023-09-19T01:05:18;14.60;98.00
26575;DHT22;67165;50.256;10.978;2023-09-19T01:07:44;14.50;98.00
26575;DHT22;67165;50.256;10.978;2023-09-19T01:10:12;14.50;98.00
26575;DHT22;67165;50.256;10.978;2023-09-19T01:18:00;14.40;98.00
26575;DHT22;67165;50.256;10.978;2023-09-19T01:28:14;14.30;98.00
26575;DHT22;67165;50.256;10.978;2023-09-19T01:30:43;14.30;98.00
26575;DHT22;67165;50.256;10.978;2023-09-19T01:33:09;14.30;98.00
26575;DHT22;67165;50.256;10.978;2023-09-19T01:35:40;14.20;98.00
26575;DHT22;67165;50.256;10.978;2023-09-19T01:38:06;14.20;98.00
26575;DHT22;67165;50.256;10.978;2023-09-19T01:40:42;14.20;98.00
26575;DHT22;67165;50.256;10.978;2023-09-19T01:43:27;14.20;98.00
26575;DHT22;67165;50.256;10.978;2023-09-19T01:48:42;14.20;98.00
26575;DHT22;67165;50.256;10.978;2023-09-19T01:51:18;14.20;98.00
26575;DHT22;67165;50.256;10.978;2023-09-19T01:56:32;14.20;98.00
26575;DHT22;67165;50.256;10.978;2023-09-19T01:59:06;14.10;98.00
26575;DHT22;67165;50.256;10.978;2023-09-19T02:01:33;14.20;98.00
26575;DHT22;67165;50.256;10.978;2023-09-19T02:04:00;14.20;98.00
26575;DHT22;67165;50.256;10.978;2023-09-19T02:06:26;14.20;98.00
26575;DHT22;67165;50.256;10.978;2023-09-19T02:08:54;14.30;98.00
26575;DHT22;67165;50.256;10.978;2023-09-19T02:11:19;14.30;98.00
26575;DHT22;67165;50.256;10.978;2023-09-19T02:13:45;14.30;98.00
26575;DHT22;67165;50.256;10.978;2023-09-19T02:16:11;14.30;98.00
26575;DHT22;67165;50.256;10.978;2023-09-19T02:18:38;14.40;98.00
26575;DHT22;67165;50.256;10.978;2023-09-19T02:21:04;14.40;98.00
26575;DHT22;67165;50.256;10.978;2023-09-19T02:23:32;14.40;98.00
26575;DHT22;67165;50.256;10.978;2023-09-19T02:25:59;14.40;98.00
26575;DHT22;67165;50.256;10.978;2023-09-19T02:28:29;14.40;98.00
26575;DHT22;67165;50.256;10.978;2023-09-19T02:30:56;14.40;98.00
26575;DHT22;67165;50.256;10.978;2023-09-19T02:33:22;14.40;98.00
26575;DHT22;67165;50.256;10.978;2023-09-19T02:35:47;14.40;98.00
26575;DHT22;67165;50.256;10.978;2023-09-19T02:38:14;14.40;98.00
26575;DHT22;67165;50.256;10.978;2023-09-19T02:40:43;14.40;98.00
26575;DHT22;67165;50.256;10.978;2023-09-19T02:43:09;14.30;98.00
26575;DHT22;67165;50.256;10.978;2023-09-19T02:45:35;14.30;98.00
26575;DHT22;67165;50.256;10.978;2023-09-19T02:48:01;14.30;98.00
26575;DHT22;67165;50.256;10.978;2023-09-19T02:50:27;14.20;98.00
26575;DHT22;67165;50.256;10.978;2023-09-19T02:52:53;14.20;98.00
26575;DHT22;67165;50.256;10.978;2023-09-19T02:55:19;14.20;98.00
26575;DHT22;67165;50.256;10.978;2023-09-19T02:57:49;14.20;98.00
26575;DHT22;67165;50.256;10.978;2023-09-19T03:00:17;14.20;98.00
26575;DHT22;67165;50.256;10.978;2023-09-19T03:02:53;14.10;98.00
26575;DHT22;67165;50.256;10.978;2023-09-19T03:05:20;14.20;98.00
26575;DHT22;67165;50.256;10.978;2023-09-19T03:07:47;14.20;98.00
26575;DHT22;67165;50.256;10.978;2023-09-19T03:10:16;14.20;98.00
26575;DHT22;67165;50.256;10.978;2023-09-19T03:12:42;14.30;98.00
26575;DHT22;67165;50.256;10.978;2023-09-19T03:15:08;14.30;98.00
26575;DHT22;67165;50.256;10.978;2023-09-19T03:17:34;14.40;98.00
26575;DHT22;67165;50.256;10.978;2023-09-19T03:20:00;14.50;98.00
26575;DHT22;67165;50.256;10.978;2023-09-19T03:22:27;14.50;98.00
26575;DHT22;67165;50.256;10.978;2023-09-19T03:24:53;14.60;98.00
26575;DHT22;67165;50.256;10.978;2023-09-19T03:27:19;14.60;98.00
26575;DHT22;67165;50.256;10.978;2023-09-19T03:29:46;14.60;98.00
26575;DHT22;67165;50.256;10.978;2023-09-19T03:32:12;14.70;98.00
26575;DHT22;67165;50.256;10.978;2023-09-19T03:34:38;14.70;98.00
26575;DHT22;67165;50.256;10.978;2023-09-19T03:37:09;14.80;98.00
26575;DHT22;67165;50.256;10.978;2023-09-19T03:39:34;14.80;98.00
26575;DHT22;67165;50.256;10.978;2023-09-19T03:42:01;14.80;98.00
26575;DHT22;67165;50.256;10.978;2023-09-19T03:44:28;14.90;98.00
26575;DHT22;67165;50.256;10.978;2023-09-19T03:46:54;14.90;98.00
26575;DHT22;67165;50.256;10.978;2023-09-19T03:49:21;14.90;98.00
26575;DHT22;67165;50.256;10.978;2023-09-19T03:51:46;15.00;98.00
26575;DHT22;67165;50.256;10.978;2023-09-19T03:54:12;15.00;98.00
26575;DHT22;67165;50.256;10.978;2023-09-19T03:56:38;15.00;98.00
26575;DHT22;67165;50.256;10.978;2023-09-19T03:59:03;15.10;98.00
26575;DHT22;67165;50.256;10.978;2023-09-19T04:01:30;15.00;98.00
26575;DHT22;67165;50.256;10.978;2023-09-19T04:03:57;15.10;98.00
26575;DHT22;67165;50.256;10.978;2023-09-19T04:06:23;15.20;98.00
26575;DHT22;67165;50.256;10.978;2023-09-19T04:08:48;15.20;98.00
26575;DHT22;67165;50.256;10.978;2023-09-19T04:11:14;15.20;98.00
26575;DHT22;67165;50.256;10.978;2023-09-19T04:13:40;15.20;98.00
26575;DHT22;67165;50.256;10.978;2023-09-19T04:16:05;15.20;98.00
26575;DHT22;67165;50.256;10.978;2023-09-19T04:18:34;15.20;98.00
26575;DHT22;67165;50.256;10.978;2023-09-19T04:21:03;15.20;98.00
26575;DHT22;67165;50.256;10.978;2023-09-19T04:23:31;15.10;98.00
26575;DHT22;67165;50.256;10.978;2023-09-19T04:25:57;15.10;98.00
26575;DHT22;67165;50.256;10.978;2023-09-19T04:28:23;15.20;98.00
26575;DHT22;67165;50.256;10.978;2023-09-19T04:30:50;15.20;98.00
26575;DHT22;67165;50.256;10.978;2023-09-19T04:33:15;15.20;98.00
26575;DHT22;67165;50.256;10.978;2023-09-19T04:35:41;15.20;98.00
26575;DHT22;67165;50.256;10.978;2023-09-19T04:38:09;15.30;98.00
26575;DHT22;67165;50.256;10.978;2023-09-19T04:40:35;15.30;98.00
26575;DHT22;67165;50.256;10.978;2023-09-19T04:43:01;15.30;98.00
26575;DHT22;67165;50.256;10.978;2023-09-19T04:45:27;15.40;98.00
26575;DHT22;67165;50.256;10.978;2023-09-19T04:47:53;15.40;98.00
26575;DHT22;67165;50.256;10.978;2023-09-19T04:50:20;15.40;98.00
26575;DHT22;67165;50.256;10.978;2023-09-19T04:52:49;15.40;98.00
26575;DHT22;67165;50.256;10.978;2023-09-19T04:55:17;15.50;98.00
26575;DHT22;67165;50.256;10.978;2023-09-19T04:57:48;15.50;98.00
26575;DHT22;67165;50.256;10.978;2023-09-19T05:00:18;15.50;98.00
26575;DHT22;67165;50.256;10.978;2023-09-19T05:02:45;15.50;98.00
26575;DHT22;67165;50.256;10.978;2023-09-19T05:05:11;15.50;98.00
26575;DHT22;67165;50.256;10.978;2023-09-19T05:07:39;15.50;98.00
26575;DHT22;67165;50.256;10.978;2023-09-19T05:10:05;15.40;98.00
26575;DHT22;67165;50.256;10.978;2023-09-19T05:12:33;15.40;98.00
26575;DHT22;67165;50.256;10.978;2023-09-19T05:14:59;15.30;98.00
26575;DHT22;67165;50.256;10.978;2023-09-19T05:17:25;15.30;98.00
26575;DHT22;67165;50.256;10.978;2023-09-19T05:19:51;15.30;98.00
26575;DHT22;67165;50.256;10.978;2023-09-19T05:22:17;15.20;98.00
26575;DHT22;67165;50.256;10.978;2023-09-19T05:24:44;15.20;98.00
26575;DHT22;67165;50.256;10.978;2023-09-19T05:27:16;15.20;98.00
26575;DHT22;67165;50.256;10.978;2023-09-19T05:29:43;15.10;98.00
26575;DHT22;67165;50.256;10.978;2023-09-19T05:32:10;15.00;98.00
26575;DHT22;67165;50.256;10.978;2023-09-19T05:34:36;15.00;98.00
26575;DHT22;67165;50.256;10.978;2023-09-19T05:37:02;15.00;98.00
26575;DHT22;67165;50.256;10.978;2023-09-19T05:39:28;15.00;98.00
26575;DHT22;67165;50.256;10.978;2023-09-19T05:41:53;15.00;98.00
26575;DHT22;67165;50.256;10.978;2023-09-19T05:44:20;15.00;98.00
26575;DHT22;67165;50.256;10.978;2023-09-19T05:46:46;15.00;98.00
26575;DHT22;67165;50.256;10.978;2023-09-19T05:49:14;15.00;98.00
26575;DHT22;67165;50.256;10.978;2023-09-19T05:51:39;15.00;98.00
26575;DHT22;67165;50.256;10.978;2023-09-19T05:54:05;15.00;98.00
26575;DHT22;67165;50.256;10.978;2023-09-19T05:56:31;15.10;98.00
26575;DHT22;67165;50.256;10.978;2023-09-19T05:58:56;15.20;98.00
26575;DHT22;67165;50.256;10.978;2023-09-19T06:01:22;15.20;98.00
26575;DHT22;67165;50.256;10.978;2023-09-19T06:03:48;15.40;98.00
26575;DHT22;67165;50.256;10.978;2023-09-19T06:06:14;15.40;98.00
26575;DHT22;67165;50.256;10.978;2023-09-19T06:08:40;15.50;98.00
26575;DHT22;67165;50.256;10.978;2023-09-19T06:11:05;15.60;98.00
26575;DHT22;67165;50.256;10.978;2023-09-19T06:13:32;15.70;98.00
26575;DHT22;67165;50.256;10.978;2023-09-19T06:15:59;15.90;98.00
26575;DHT22;67165;50.256;10.978;2023-09-19T06:18:28;16.00;98.00
26575;DHT22;67165;50.256;10.978;2023-09-19T06:20:55;16.20;98.00
26575;DHT22;67165;50.256;10.978;2023-09-19T06:23:21;16.40;98.00
26575;DHT22;67165;50.256;10.978;2023-09-19T06:25:48;16.50;98.00
26575;DHT22;67165;50.256;10.978;2023-09-19T06:28:13;16.60;98.00
26575;DHT22;67165;50.256;10.978;2023-09-19T06:30:40;16.80;98.00
26575;DHT22;67165;50.256;10.978;2023-09-19T06:33:06;16.90;98.00
26575;DHT22;67165;50.256;10.978;2023-09-19T06:35:33;17.10;98.00
26575;DHT22;67165;50.256;10.978;2023-09-19T06:38:02;17.30;98.00
26575;DHT22;67165;50.256;10.978;2023-09-19T06:40:28;17.40;98.00
26575;DHT22;67165;50.256;10.978;2023-09-19T06:42:56;17.50;98.00
26575;DHT22;67165;50.256;10.978;2023-09-19T06:45:23;17.60;98.00
26575;DHT22;67165;50.256;10.978;2023-09-19T06:47:52;17.60;98.00
26575;DHT22;67165;50.256;10.978;2023-09-19T06:50:18;17.40;98.00
26575;DHT22;67165;50.256;10.978;2023-09-19T06:52:45;17.30;98.00
26575;DHT22;67165;50.256;10.978;2023-09-19T06:55:11;17.20;98.00
26575;DHT22;67165;50.256;10.978;2023-09-19T06:57:39;17.10;98.00
26575;DHT22;67165;50.256;10.978;2023-09-19T07:00:06;17.10;98.00
26575;DHT22;67165;50.256;10.978;2023-09-19T07:02:59;17.10;98.00
26575;DHT22;67165;50.256;10.978;2023-09-19T07:05:27;17.10;98.00
26575;DHT22;67165;50.256;10.978;2023-09-19T07:07:53;17.10;98.00
26575;DHT22;67165;50.256;10.978;2023-09-19T07:10:20;17.30;98.00
26575;DHT22;67165;50.256;10.978;2023-09-19T07:12:56;17.40;98.00
26575;DHT22;67165;50.256;10.978;2023-09-19T07:15:23;17.50;98.00
26575;DHT22;67165;50.256;10.978;2023-09-19T07:17:51;17.50;98.00
26575;DHT22;67165;50.256;10.978;2023-09-19T07:20:18;17.60;98.00
26575;DHT22;67165;50.256;10.978;2023-09-19T07:22:44;17.60;98.00
26575;DHT22;67165;50.256;10.978;2023-09-19T07:25:09;17.60;98.00
26575;DHT22;67165;50.256;10.978;2023-09-19T07:27:35;17.60;98.00
26575;DHT22;67165;50.256;10.978;2023-09-19T07:30:01;17.80;98.00
26575;DHT22;67165;50.256;10.978;2023-09-19T07:32:26;17.80;98.00
26575;DHT22;67165;50.256;10.978;2023-09-19T07:34:52;17.80;98.00
26575;DHT22;67165;50.256;10.978;2023-09-19T07:37:20;17.80;98.00
26575;DHT22;67165;50.256;10.978;2023-09-19T07:39:46;17.80;98.00
26575;DHT22;67165;50.256;10.978;2023-09-19T07:42:12;17.80;98.00
26575;DHT22;67165;50.256;10.978;2023-09-19T07:44:43;17.90;98.00
26575;DHT22;67165;50.256;10.978;2023-09-19T07:47:13;17.90;98.00
26575;DHT22;67165;50.256;10.978;2023-09-19T07:49:39;17.90;98.00
26575;DHT22;67165;50.256;10.978;2023-09-19T07:52:04;17.80;98.00
26575;DHT22;67165;50.256;10.978;2023-09-19T07:54:30;17.80;98.00
26575;DHT22;67165;50.256;10.978;2023-09-19T07:57:01;17.70;98.00
26575;DHT22;67165;50.256;10.978;2023-09-19T07:59:27;17.70;98.00
26575;DHT22;67165;50.256;10.978;2023-09-19T08:01:53;17.80;98.00
26575;DHT22;67165;50.256;10.978;2023-09-19T08:04:19;17.90;98.00
26575;DHT22;67165;50.256;10.978;2023-09-19T08:06:45;18.00;98.00
26575;DHT22;67165;50.256;10.978;2023-09-19T08:09:11;18.00;98.00
26575;DHT22;67165;50.256;10.978;2023-09-19T08:11:39;18.00;98.00
26575;DHT22;67165;50.256;10.978;2023-09-19T08:14:05;18.10;98.00
26575;DHT22;67165;50.256;10.978;2023-09-19T08:16:33;18.00;98.00
26575;DHT22;67165;50.256;10.978;2023-09-19T08:18:58;18.00;98.00
26575;DHT22;67165;50.256;10.978;2023-09-19T08:21:25;17.90;98.00
26575;DHT22;67165;50.256;10.978;2023-09-19T08:23:51;17.90;98.00
26575;DHT22;67165;50.256;10.978;2023-09-19T08:26:18;17.80;98.00
26575;DHT22;67165;50.256;10.978;2023-09-19T08:28:45;17.70;98.00
26575;DHT22;67165;50.256;10.978;2023-09-19T08:31:10;17.60;98.00
26575;DHT22;67165;50.256;10.978;2023-09-19T08:33:37;17.60;98.00
26575;DHT22;67165;50.256;10.978;2023-09-19T08:36:03;17.70;98.00
26575;DHT22;67165;50.256;10.978;2023-09-19T08:38:31;17.80;98.00
26575;DHT22;67165;50.256;10.978;2023-09-19T08:40:59;17.80;98.00
26575;DHT22;67165;50.256;10.978;2023-09-19T08:43:26;17.80;98.00
26575;DHT22;67165;50.256;10.978;2023-09-19T08:48:34;17.80;98.00
26575;DHT22;67165;50.256;10.978;2023-09-19T08:51:15;17.80;98.00
26575;DHT22;67165;50.256;10.978;2023-09-19T08:56:26;17.90;98.00
26575;DHT22;67165;50.256;10.978;2023-09-19T08:58:59;18.00;98.00
26575;DHT22;67165;50.256;10.978;2023-09-19T09:01:27;18.20;98.00
26575;DHT22;67165;50.256;10.978;2023-09-19T09:03:54;18.40;98.00
26575;DHT22;67165;50.256;10.978;2023-09-19T09:06:22;18.70;98.00
26575;DHT22;67165;50.256;10.978;2023-09-19T09:08:50;19.10;98.00
26575;DHT22;67165;50.256;10.978;2023-09-19T09:11:17;19.30;98.00
26575;DHT22;67165;50.256;10.978;2023-09-19T09:13:46;19.30;98.00
26575;DHT22;67165;50.256;10.978;2023-09-19T09:16:13;19.30;98.00
26575;DHT22;67165;50.256;10.978;2023-09-19T09:18:40;19.30;98.00
26575;DHT22;67165;50.256;10.978;2023-09-19T09:21:05;19.30;98.00
26575;DHT22;67165;50.256;10.978;2023-09-19T09:23:31;19.30;98.00
26575;DHT22;67165;50.256;10.978;2023-09-19T09:25:58;19.30;98.00
26575;DHT22;67165;50.256;10.978;2023-09-19T09:28:34;19.40;98.00
26575;DHT22;67165;50.256;10.978;2023-09-19T09:31:04;19.50;98.00
26575;DHT22;67165;50.256;10.978;2023-09-19T09:33:35;19.50;98.00
26575;DHT22;67165;50.256;10.978;2023-09-19T09:36:03;19.40;98.00
26575;DHT22;67165;50.256;10.978;2023-09-19T09:38:44;19.50;98.00
26575;DHT22;67165;50.256;10.978;2023-09-19T09:41:10;19.60;98.00
26575;DHT22;67165;50.256;10.978;2023-09-19T09:43:41;19.60;98.00
26575;DHT22;67165;50.256;10.978;2023-09-19T09:46:18;19.60;98.00
26575;DHT22;67165;50.256;10.978;2023-09-19T09:48:57;19.70;98.00
26575;DHT22;67165;50.256;10.978;2023-09-19T09:51:58;19.90;98.00
26575;DHT22;67165;50.256;10.978;2023-09-19T09:54:30;20.00;98.00
26575;DHT22;67165;50.256;10.978;2023-09-19T09:57:03;20.10;98.00
26575;DHT22;67165;50.256;10.978;2023-09-19T09:59:52;20.20;98.00
26575;DHT22;67165;50.256;10.978;2023-09-19T10:02:29;20.30;98.00
26575;DHT22;67165;50.256;10.978;2023-09-19T10:04:59;20.40;98.00
26575;DHT22;67165;50.256;10.978;2023-09-19T10:07:35;20.50;98.00
26575;DHT22;67165;50.256;10.978;2023-09-19T10:10:06;20.50;98.00
26575;DHT22;67165;50.256;10.978;2023-09-19T10:12:46;20.40;98.00
26575;DHT22;67165;50.256;10.978;2023-09-19T10:15:15;20.30;98.00
26575;DHT22;67165;50.256;10.978;2023-09-19T10:17:44;20.30;98.00
26575;DHT22;67165;50.256;10.978;2023-09-19T10:20:13;20.30;98.00
26575;DHT22;67165;50.256;10.978;2023-09-19T10:23:08;20.40;98.00
26575;DHT22;67165;50.256;10.978;2023-09-19T10:25:37;20.30;98.00
26575;DHT22;67165;50.256;10.978;2023-09-19T10:28:07;20.30;98.00
26575;DHT22;67165;50.256;10.978;2023-09-19T10:30:47;20.30;98.00
26575;DHT22;67165;50.256;10.978;2023-09-19T10:33:17;20.20;98.00
26575;DHT22;67165;50.256;10.978;2023-09-19T10:35:45;20.10;98.00
26575;DHT22;67165;50.256;10.978;2023-09-19T10:38:12;20.10;98.00
26575;DHT22;67165;50.256;10.978;2023-09-19T10:40:39;20.00;98.00
26575;DHT22;67165;50.256;10.978;2023-09-19T10:43:12;20.00;98.00
26575;DHT22;67165;50.256;10.978;2023-09-19T10:45:39;19.90;98.00
26575;DHT22;67165;50.256;10.978;2023-09-19T10:48:06;19.70;98.00
26575;DHT22;67165;50.256;10.978;2023-09-19T10:50:48;19.60;98.00
26575;DHT22;67165;50.256;10.978;2023-09-19T10:53:16;19.60;98.00
26575;DHT22;67165;50.256;10.978;2023-09-19T10:55:50;19.60;98.00
26575;DHT22;67165;50.256;10.978;2023-09-19T10:58:31;19.60;98.00
26575;DHT22;67165;50.256;10.978;2023-09-19T11:01:00;19.60;98.00
26575;DHT22;67165;50.256;10.978;2023-09-19T11:03:38;19.60;98.00
26575;DHT22;67165;50.256;10.978;2023-09-19T11:11:49;19.70;98.00
26575;DHT22;67165;50.256;10.978;2023-09-19T11:30:33;19.50;98.00
26575;DHT22;67165;50.256;10.978;2023-09-19T11:36:08;19.60;98.00
26575;DHT22;67165;50.256;10.978;2023-09-19T11:43:49;19.90;98.00
26575;DHT22;67165;50.256;10.978;2023-09-19T11:46:20;20.10;98.00
26575;DHT22;67165;50.256;10.978;2023-09-19T11:48:50;20.20;98.00
26575;DHT22;67165;50.256;10.978;2023-09-19T11:51:23;20.20;98.00
26575;DHT22;67165;50.256;10.978;2023-09-19T11:53:56;20.30;98.00
26575;DHT22;67165;50.256;10.978;2023-09-19T11:56:25;20.40;98.00
26575;DHT22;67165;50.256;10.978;2023-09-19T11:58:56;20.50;98.00
26575;DHT22;67165;50.256;10.978;2023-09-19T12:03:53;20.70;98.00
26575;DHT22;67165;50.256;10.978;2023-09-19T12:06:20;20.70;98.00
26575;DHT22;67165;50.256;10.978;2023-09-19T12:08:47;20.60;98.00
26575;DHT22;67165;50.256;10.978;2023-09-19T12:11:15;20.50;98.00
26575;DHT22;67165;50.256;10.978;2023-09-19T12:13:42;20.40;98.00
26575;DHT22;67165;50.256;10.978;2023-09-19T12:16:17;20.40;98.00
26575;DHT22;67165;50.256;10.978;2023-09-19T12:18:44;20.40;98.00
26575;DHT22;67165;50.256;10.978;2023-09-19T12:21:29;20.40;98.00
26575;DHT22;67165;50.256;10.978;2023-09-19T12:24:13;20.20;98.00
26575;DHT22;67165;50.256;10.978;2023-09-19T12:26:45;20.10;98.00
26575;DHT22;67165;50.256;10.978;2023-09-19T12:29:19;20.00;98.00
26575;DHT22;67165;50.256;10.978;2023-09-19T12:31:58;19.90;98.00
26575;DHT22;67165;50.256;10.978;2023-09-19T12:34:32;19.90;98.00
26575;DHT22;67165;50.256;10.978;2023-09-19T12:37:16;19.90;98.00
26575;DHT22;67165;50.256;10.978;2023-09-19T12:39:53;19.90;98.00
26575;DHT22;67165;50.256;10.978;2023-09-19T12:42:24;19.90;98.00
26575;DHT22;67165;50.256;10.978;2023-09-19T12:44:55;19.90;98.00
26575;DHT22;67165;50.256;10.978;2023-09-19T12:47:23;19.90;98.00
26575;DHT22;67165;50.256;10.978;2023-09-19T12:52:50;19.90;98.00
26575;DHT22;67165;50.256;10.978;2023-09-19T13:00:41;19.90;98.00
26575;DHT22;67165;50.256;10.978;2023-09-19T13:03:24;19.80;98.00
26575;DHT22;67165;50.256;10.978;2023-09-19T13:05:52;19.80;98.00
26575;DHT22;67165;50.256;10.978;2023-09-19T13:08:32;19.80;98.00
26575;DHT22;67165;50.256;10.978;2023-09-19T13:11:01;19.70;98.00
26575;DHT22;67165;50.256;10.978;2023-09-19T13:13:27;19.60;98.00
26575;DHT22;67165;50.256;10.978;2023-09-19T13:15:55;19.70;98.00
26575;DHT22;67165;50.256;10.978;2023-09-19T13:18:23;19.70;98.00
26575;DHT22;67165;50.256;10.978;2023-09-19T13:21:09;19.70;98.00
26575;DHT22;67165;50.256;10.978;2023-09-19T13:23:43;19.60;98.00
26575;DHT22;67165;50.256;10.978;2023-09-19T13:26:10;19.60;98.00
26575;DHT22;67165;50.256;10.978;2023-09-19T13:28:38;19.60;98.00
26575;DHT22;67165;50.256;10.978;2023-09-19T13:31:04;19.60;98.00
26575;DHT22;67165;50.256;10.978;2023-09-19T13:33:31;19.60;98.00
26575;DHT22;67165;50.256;10.978;2023-09-19T13:35:57;19.50;98.00
26575;DHT22;67165;50.256;10.978;2023-09-19T13:38:23;19.50;98.00
26575;DHT22;67165;50.256;10.978;2023-09-19T13:40:49;19.50;98.00
26575;DHT22;67165;50.256;10.978;2023-09-19T13:43:18;19.40;98.00
26575;DHT22;67165;50.256;10.978;2023-09-19T13:45:44;19.40;98.00
26575;DHT22;67165;50.256;10.978;2023-09-19T13:48:10;19.30;98.00
26575;DHT22;67165;50.256;10.978;2023-09-19T13:50:37;19.40;98.00
26575;DHT22;67165;50.256;10.978;2023-09-19T13:53:10;19.40;98.00
26575;DHT22;67165;50.256;10.978;2023-09-19T13:55:37;19.40;98.00
26575;DHT22;67165;50.256;10.978;2023-09-19T13:58:03;19.40;98.00
26575;DHT22;67165;50.256;10.978;2023-09-19T14:00:31;19.50;98.00
26575;DHT22;67165;50.256;10.978;2023-09-19T14:03:00;19.50;98.00
26575;DHT22;67165;50.256;10.978;2023-09-19T14:05:26;19.60;98.00
26575;DHT22;67165;50.256;10.978;2023-09-19T14:07:53;19.60;98.00
26575;DHT22;67165;50.256;10.978;2023-09-19T14:10:21;19.60;98.00
26575;DHT22;67165;50.256;10.978;2023-09-19T14:12:47;19.60;98.00
26575;DHT22;67165;50.256;10.978;2023-09-19T14:15:13;19.50;98.00
26575;DHT22;67165;50.256;10.978;2023-09-19T14:17:40;19.60;98.00
26575;DHT22;67165;50.256;10.978;2023-09-19T14:20:10;19.60;98.00
26575;DHT22;67165;50.256;10.978;2023-09-19T14:22:36;19.60;98.00
26575;DHT22;67165;50.256;10.978;2023-09-19T14:25:05;19.60;98.00
26575;DHT22;67165;50.256;10.978;2023-09-19T14:27:31;19.60;98.00
26575;DHT22;67165;50.256;10.978;2023-09-19T14:29:57;19.60;98.00
26575;DHT22;67165;50.256;10.978;2023-09-19T14:32:23;19.60;98.00
26575;DHT22;67165;50.256;10.978;2023-09-19T14:34:49;19.50;98.00
26575;DHT22;67165;50.256;10.978;2023-09-19T14:37:15;19.50;98.00
26575;DHT22;67165;50.256;10.978;2023-09-19T14:39:41;19.60;98.00
26575;DHT22;67165;50.256;10.978;2023-09-19T14:42:10;19.60;98.00
26575;DHT22;67165;50.256;10.978;2023-09-19T14:44:36;19.60;98.00
26575;DHT22;67165;50.256;10.978;2023-09-19T14:47:05;19.50;98.00
26575;DHT22;67165;50.256;10.978;2023-09-19T14:49:36;19.50;98.00
26575;DHT22;67165;50.256;10.978;2023-09-19T14:52:09;19.50;98.00
26575;DHT22;67165;50.256;10.978;2023-09-19T14:54:35;19.50;98.00
26575;DHT22;67165;50.256;10.978;2023-09-19T14:57:03;19.40;98.00
26575;DHT22;67165;50.256;10.978;2023-09-19T14:59:33;19.30;98.00
26575;DHT22;67165;50.256;10.978;2023-09-19T15:02:03;19.30;98.00
26575;DHT22;67165;50.256;10.978;2023-09-19T15:04:29;19.30;98.00
26575;DHT22;67165;50.256;10.978;2023-09-19T15:06:55;19.20;98.00
26575;DHT22;67165;50.256;10.978;2023-09-19T15:09:24;19.10;98.00
26575;DHT22;67165;50.256;10.978;2023-09-19T15:11:53;19.10;98.00
26575;DHT22;67165;50.256;10.978;2023-09-19T15:14:19;19.10;98.00
26575;DHT22;67165;50.256;10.978;2023-09-19T15:16:45;19.10;98.00
26575;DHT22;67165;50.256;10.978;2023-09-19T15:19:10;19.10;98.00
26575;DHT22;67165;50.256;10.978;2023-09-19T15:21:36;19.00;98.00
26575;DHT22;67165;50.256;10.978;2023-09-19T15:24:03;18.90;98.00
26575;DHT22;67165;50.256;10.978;2023-09-19T15:26:30;18.90;98.00
26575;DHT22;67165;50.256;10.978;2023-09-19T15:28:56;18.90;98.00
26575;DHT22;67165;50.256;10.978;2023-09-19T15:31:22;18.90;98.00
26575;DHT22;67165;50.256;10.978;2023-09-19T15:33:47;18.80;98.00
26575;DHT22;67165;50.256;10.978;2023-09-19T15:36:14;18.90;98.00
26575;DHT22;67165;50.256;10.978;2023-09-19T15:39:00;18.80;98.00
26575;DHT22;67165;50.256;10.978;2023-09-19T15:41:37;18.80;98.00
26575;DHT22;67165;50.256;10.978;2023-09-19T15:44:03;18.70;98.00
26575;DHT22;67165;50.256;10.978;2023-09-19T15:46:33;18.70;98.00
26575;DHT22;67165;50.256;10.978;2023-09-19T15:49:00;18.70;98.00
26575;DHT22;67165;50.256;10.978;2023-09-19T15:51:26;18.70;98.00
26575;DHT22;67165;50.256;10.978;2023-09-19T15:53:53;18.70;98.00
26575;DHT22;67165;50.256;10.978;2023-09-19T15:56:21;18.70;98.00
26575;DHT22;67165;50.256;10.978;2023-09-19T15:58:53;18.70;98.00
26575;DHT22;67165;50.256;10.978;2023-09-19T16:01:22;18.70;98.00
26575;DHT22;67165;50.256;10.978;2023-09-19T16:03:50;18.70;98.00
26575;DHT22;67165;50.256;10.978;2023-09-19T16:06:20;18.80;98.00
26575;DHT22;67165;50.256;10.978;2023-09-19T16:08:48;18.80;98.00
26575;DHT22;67165;50.256;10.978;2023-09-19T16:11:15;18.80;98.00
26575;DHT22;67165;50.256;10.978;2023-09-19T16:13:41;18.80;98.00
26575;DHT22;67165;50.256;10.978;2023-09-19T16:16:08;18.70;98.00
26575;DHT22;67165;50.256;10.978;2023-09-19T16:18:47;18.70;98.00
26575;DHT22;67165;50.256;10.978;2023-09-19T16:21:16;18.70;98.00
26575;DHT22;67165;50.256;10.978;2023-09-19T16:23:47;18.60;98.00
26575;DHT22;67165;50.256;10.978;2023-09-19T16:26:15;18.60;98.00
26575;DHT22;67165;50.256;10.978;2023-09-19T16:28:43;18.60;98.00